sensor_id;sensor_type;location;lat;lon;timestamp;temperature;humidity
42031;DHT22;27709;52.036;5.906;2023-05-10T00:00:36;14.50;99.90
42031;DHT22;27709;52.036;5.906;2023-05-10T00:03:01;14.50;99.90
42031;DHT22;27709;52.036;5.906;2023-05-10T00:05:29;14.50;99.90
42031;DHT22;27709;52.036;5.906;2023-05-10T00:07:55;14.50;99.90
42031;DHT22;27709;52.036;5.906;2023-05-10T00:10:20;14.50;99.90
42031;DHT22;27709;52.036;5.906;2023-05-10T00:12:45;14.50;99.90
42031;DHT22;27709;52.036;5.906;2023-05-10T00:15:11;14.50;99.90
42031;DHT22;27709;52.036;5.906;2023-05-10T00:17:36;14.50;99.90
42031;DHT22;27709;52.036;5.906;2023-05-10T00:20:02;14.50;99.90
42031;DHT22;27709;52.036;5.906;2023-05-10T00:22:30;14.50;99.90
42031;DHT22;27709;52.036;5.906;2023-05-10T00:24:55;14.50;99.90
42031;DHT22;27709;52.036;5.906;2023-05-10T00:27:21;14.50;99.90
42031;DHT22;27709;52.036;5.906;2023-05-10T00:29:46;14.50;99.90
42031;DHT22;27709;52.036;5.906;2023-05-10T00:32:12;14.50;99.90
42031;DHT22;27709;52.036;5.906;2023-05-10T00:34:39;14.50;99.90
42031;DHT22;27709;52.036;5.906;2023-05-10T00:37:04;14.50;99.90
42031;DHT22;27709;52.036;5.906;2023-05-10T00:39:30;14.50;99.90
42031;DHT22;27709;52.036;5.906;2023-05-10T00:41:56;14.50;99.90
42031;DHT22;27709;52.036;5.906;2023-05-10T00:44:21;14.50;99.90
42031;DHT22;27709;52.036;5.906;2023-05-10T00:46:47;14.50;99.90
42031;DHT22;27709;52.036;5.906;2023-05-10T00:49:12;14.50;99.90
42031;DHT22;27709;52.036;5.906;2023-05-10T00:51:38;14.50;99.90
42031;DHT22;27709;52.036;5.906;2023-05-10T00:54:03;14.40;99.90
42031;DHT22;27709;52.036;5.906;2023-05-10T00:56:29;14.50;99.90
42031;DHT22;27709;52.036;5.906;2023-05-10T00:58:55;14.40;99.90
42031;DHT22;27709;52.036;5.906;2023-05-10T01:01:20;14.40;99.90
42031;DHT22;27709;52.036;5.906;2023-05-10T01:03:46;14.50;99.90
42031;DHT22;27709;52.036;5.906;2023-05-10T01:06:12;14.40;99.90
42031;DHT22;27709;52.036;5.906;2023-05-10T01:08:37;14.40;99.90
42031;DHT22;27709;52.036;5.906;2023-05-10T01:11:03;14.40;99.90
42031;DHT22;27709;52.036;5.906;2023-05-10T01:15:57;14.40;99.90
42031;DHT22;27709;52.036;5.906;2023-05-10T01:18:23;14.40;99.90
42031;DHT22;27709;52.036;5.906;2023-05-10T01:20:53;14.40;99.90
42031;DHT22;27709;52.036;5.906;2023-05-10T01:26:01;14.40;99.90
42031;DHT22;27709;52.036;5.906;2023-05-10T01:28:48;14.40;99.90
42031;DHT22;27709;52.036;5.906;2023-05-10T01:31:30;14.40;99.90
42031;DHT22;27709;52.036;5.906;2023-05-10T01:34:07;14.40;99.90
42031;DHT22;27709;52.036;5.906;2023-05-10T01:36:45;14.40;99.90
42031;DHT22;27709;52.036;5.906;2023-05-10T01:39:28;14.40;99.90
42031;DHT22;27709;52.036;5.906;2023-05-10T01:42:03;14.40;99.90
42031;DHT22;27709;52.036;5.906;2023-05-10T01:44:46;14.40;99.90
42031;DHT22;27709;52.036;5.906;2023-05-10T01:47:16;14.40;99.90
42031;DHT22;27709;52.036;5.906;2023-05-10T01:49:52;14.30;99.90
42031;DHT22;27709;52.036;5.906;2023-05-10T01:52:18;14.30;99.90
42031;DHT22;27709;52.036;5.906;2023-05-10T01:54:50;14.40;99.90
42031;DHT22;27709;52.036;5.906;2023-05-10T01:57:19;14.40;99.90
42031;DHT22;27709;52.036;5.906;2023-05-10T01:59:45;14.30;99.90
42031;DHT22;27709;52.036;5.906;2023-05-10T02:02:14;14.40;99.90
42031;DHT22;27709;52.036;5.906;2023-05-10T02:04:40;14.40;99.90
42031;DHT22;27709;52.036;5.906;2023-05-10T02:07:06;14.40;99.90
42031;DHT22;27709;52.036;5.906;2023-05-10T02:09:33;14.40;99.90
42031;DHT22;27709;52.036;5.906;2023-05-10T02:12:00;14.40;99.90
42031;DHT22;27709;52.036;5.906;2023-05-10T02:14:28;14.50;99.90
42031;DHT22;27709;52.036;5.906;2023-05-10T02:16:54;14.40;99.90
42031;DHT22;27709;52.036;5.906;2023-05-10T02:19:20;14.50;99.90
42031;DHT22;27709;52.036;5.906;2023-05-10T02:21:47;14.50;99.90
42031;DHT22;27709;52.036;5.906;2023-05-10T02:24:13;14.50;99.90
42031;DHT22;27709;52.036;5.906;2023-05-10T02:26:40;14.50;99.90
42031;DHT22;27709;52.036;5.906;2023-05-10T02:29:06;14.50;99.90
42031;DHT22;27709;52.036;5.906;2023-05-10T02:31:32;14.50;99.90
42031;DHT22;27709;52.036;5.906;2023-05-10T02:33:58;14.50;99.90
42031;DHT22;27709;52.036;5.906;2023-05-10T02:36:24;14.50;99.90
42031;DHT22;27709;52.036;5.906;2023-05-10T02:38:50;14.40;99.90
42031;DHT22;27709;52.036;5.906;2023-05-10T02:41:16;14.40;99.90
42031;DHT22;27709;52.036;5.906;2023-05-10T02:43:43;14.40;99.90
42031;DHT22;27709;52.036;5.906;2023-05-10T02:46:09;14.40;99.90
42031;DHT22;27709;52.036;5.906;2023-05-10T02:48:34;14.40;99.90
42031;DHT22;27709;52.036;5.906;2023-05-10T02:51:00;14.50;99.90
42031;DHT22;27709;52.036;5.906;2023-05-10T02:53:31;14.40;99.90
42031;DHT22;27709;52.036;5.906;2023-05-10T02:55:58;14.40;99.90
42031;DHT22;27709;52.036;5.906;2023-05-10T02:58:24;14.40;99.90
42031;DHT22;27709;52.036;5.906;2023-05-10T03:00:50;14.30;99.90
42031;DHT22;27709;52.036;5.906;2023-05-10T03:03:16;14.40;99.90
42031;DHT22;27709;52.036;5.906;2023-05-10T03:05:41;14.30;99.90
42031;DHT22;27709;52.036;5.906;2023-05-10T03:08:07;14.30;99.90
42031;DHT22;27709;52.036;5.906;2023-05-10T03:10:32;14.30;99.90
42031;DHT22;27709;52.036;5.906;2023-05-10T03:15:35;14.40;99.90
42031;DHT22;27709;52.036;5.906;2023-05-10T03:18:13;14.40;99.90
42031;DHT22;27709;52.036;5.906;2023-05-10T03:20:42;14.40;99.90
42031;DHT22;27709;52.036;5.906;2023-05-10T03:23:13;14.40;99.90
42031;DHT22;27709;52.036;5.906;2023-05-10T03:25:39;14.40;99.90
42031;DHT22;27709;52.036;5.906;2023-05-10T03:28:05;14.40;99.90
42031;DHT22;27709;52.036;5.906;2023-05-10T03:30:31;14.40;99.90
42031;DHT22;27709;52.036;5.906;2023-05-10T03:32:56;14.40;99.90
42031;DHT22;27709;52.036;5.906;2023-05-10T03:35:22;14.40;99.90
42031;DHT22;27709;52.036;5.906;2023-05-10T03:37:48;14.30;99.90
42031;DHT22;27709;52.036;5.906;2023-05-10T03:40:14;14.30;99.90
42031;DHT22;27709;52.036;5.906;2023-05-10T03:42:39;14.30;99.90
42031;DHT22;27709;52.036;5.906;2023-05-10T03:45:05;14.30;99.90
42031;DHT22;27709;52.036;5.906;2023-05-10T03:47:31;14.30;99.90
42031;DHT22;27709;52.036;5.906;2023-05-10T03:49:56;14.30;99.90
42031;DHT22;27709;52.036;5.906;2023-05-10T03:52:22;14.20;99.90
42031;DHT22;27709;52.036;5.906;2023-05-10T03:54:47;14.30;99.90
42031;DHT22;27709;52.036;5.906;2023-05-10T03:57:13;14.20;99.90
42031;DHT22;27709;52.036;5.906;2023-05-10T03:59:38;14.20;99.90
42031;DHT22;27709;52.036;5.906;2023-05-10T04:02:04;14.20;99.90
42031;DHT22;27709;52.036;5.906;2023-05-10T04:04:29;14.20;99.90
42031;DHT22;27709;52.036;5.906;2023-05-10T04:06:55;14.20;99.90
42031;DHT22;27709;52.036;5.906;2023-05-10T04:09:20;14.20;99.90
42031;DHT22;27709;52.036;5.906;2023-05-10T04:11:46;14.10;99.90
42031;DHT22;27709;52.036;5.906;2023-05-10T04:14:11;14.10;99.90
42031;DHT22;27709;52.036;5.906;2023-05-10T04:16:37;14.10;99.90
42031;DHT22;27709;52.036;5.906;2023-05-10T04:19:02;14.10;99.90
42031;DHT22;27709;52.036;5.906;2023-05-10T04:21:28;14.10;99.90
42031;DHT22;27709;52.036;5.906;2023-05-10T04:23:53;14.10;99.90
42031;DHT22;27709;52.036;5.906;2023-05-10T04:26:19;14.10;99.90
42031;DHT22;27709;52.036;5.906;2023-05-10T04:28:45;14.10;99.90
42031;DHT22;27709;52.036;5.906;2023-05-10T04:31:10;14.10;99.90
42031;DHT22;27709;52.036;5.906;2023-05-10T04:33:36;14.10;99.90
42031;DHT22;27709;52.036;5.906;2023-05-10T04:36:02;14.20;99.90
42031;DHT22;27709;52.036;5.906;2023-05-10T04:38:28;14.20;99.90
42031;DHT22;27709;52.036;5.906;2023-05-10T04:40:53;14.20;99.90
42031;DHT22;27709;52.036;5.906;2023-05-10T04:43:19;14.20;99.90
42031;DHT22;27709;52.036;5.906;2023-05-10T04:45:44;14.20;99.90
42031;DHT22;27709;52.036;5.906;2023-05-10T04:48:10;14.20;99.90
42031;DHT22;27709;52.036;5.906;2023-05-10T04:50:35;14.20;99.90
42031;DHT22;27709;52.036;5.906;2023-05-10T04:53:01;14.20;99.90
42031;DHT22;27709;52.036;5.906;2023-05-10T04:55:27;14.20;99.90
42031;DHT22;27709;52.036;5.906;2023-05-10T04:57:52;14.10;99.90
42031;DHT22;27709;52.036;5.906;2023-05-10T05:00:18;14.20;99.90
42031;DHT22;27709;52.036;5.906;2023-05-10T05:02:44;14.10;99.90
42031;DHT22;27709;52.036;5.906;2023-05-10T05:05:10;14.00;99.90
42031;DHT22;27709;52.036;5.906;2023-05-10T05:07:36;14.10;99.90
42031;DHT22;27709;52.036;5.906;2023-05-10T05:10:02;14.00;99.90
42031;DHT22;27709;52.036;5.906;2023-05-10T05:12:28;14.00;99.90
42031;DHT22;27709;52.036;5.906;2023-05-10T05:14:53;14.10;99.90
42031;DHT22;27709;52.036;5.906;2023-05-10T05:17:19;14.10;99.90
42031;DHT22;27709;52.036;5.906;2023-05-10T05:19:44;14.10;99.90
42031;DHT22;27709;52.036;5.906;2023-05-10T05:22:10;14.10;99.90
42031;DHT22;27709;52.036;5.906;2023-05-10T05:24:35;14.10;99.90
42031;DHT22;27709;52.036;5.906;2023-05-10T05:27:02;14.10;99.90
42031;DHT22;27709;52.036;5.906;2023-05-10T05:29:28;14.10;99.90
42031;DHT22;27709;52.036;5.906;2023-05-10T05:31:53;14.20;99.90
42031;DHT22;27709;52.036;5.906;2023-05-10T05:34:19;14.20;99.90
42031;DHT22;27709;52.036;5.906;2023-05-10T05:36:45;14.20;99.90
42031;DHT22;27709;52.036;5.906;2023-05-10T05:39:11;14.20;99.90
42031;DHT22;27709;52.036;5.906;2023-05-10T05:41:36;14.20;99.90
42031;DHT22;27709;52.036;5.906;2023-05-10T05:44:02;14.20;99.90
42031;DHT22;27709;52.036;5.906;2023-05-10T05:46:27;14.30;99.90
42031;DHT22;27709;52.036;5.906;2023-05-10T05:48:53;14.40;99.90
42031;DHT22;27709;52.036;5.906;2023-05-10T05:51:18;14.40;99.90
42031;DHT22;27709;52.036;5.906;2023-05-10T05:53:43;14.50;99.90
42031;DHT22;27709;52.036;5.906;2023-05-10T05:56:09;14.50;99.90
42031;DHT22;27709;52.036;5.906;2023-05-10T05:58:34;14.60;99.90
42031;DHT22;27709;52.036;5.906;2023-05-10T06:01:00;14.60;99.90
42031;DHT22;27709;52.036;5.906;2023-05-10T06:03:26;14.70;99.90
42031;DHT22;27709;52.036;5.906;2023-05-10T06:05:51;14.70;99.90
42031;DHT22;27709;52.036;5.906;2023-05-10T06:08:17;14.80;99.90
42031;DHT22;27709;52.036;5.906;2023-05-10T06:10:42;14.80;99.90
42031;DHT22;27709;52.036;5.906;2023-05-10T06:13:08;14.80;99.90
42031;DHT22;27709;52.036;5.906;2023-05-10T06:15:33;14.80;99.90
42031;DHT22;27709;52.036;5.906;2023-05-10T06:17:59;14.80;99.90
42031;DHT22;27709;52.036;5.906;2023-05-10T06:20:25;14.70;99.90
42031;DHT22;27709;52.036;5.906;2023-05-10T06:22:50;14.70;99.90
42031;DHT22;27709;52.036;5.906;2023-05-10T06:25:16;14.70;99.90
42031;DHT22;27709;52.036;5.906;2023-05-10T06:27:43;14.70;99.90
42031;DHT22;27709;52.036;5.906;2023-05-10T06:30:08;14.70;99.90
42031;DHT22;27709;52.036;5.906;2023-05-10T06:32:34;14.70;99.90
42031;DHT22;27709;52.036;5.906;2023-05-10T06:35:00;14.70;99.90
42031;DHT22;27709;52.036;5.906;2023-05-10T06:37:25;14.60;99.90
42031;DHT22;27709;52.036;5.906;2023-05-10T06:39:51;14.50;99.90
42031;DHT22;27709;52.036;5.906;2023-05-10T06:42:16;14.60;99.90
42031;DHT22;27709;52.036;5.906;2023-05-10T06:44:41;14.60;99.90
42031;DHT22;27709;52.036;5.906;2023-05-10T06:47:07;14.60;99.90
42031;DHT22;27709;52.036;5.906;2023-05-10T06:49:32;14.60;99.90
42031;DHT22;27709;52.036;5.906;2023-05-10T06:51:58;14.60;99.90
42031;DHT22;27709;52.036;5.906;2023-05-10T06:54:23;14.60;99.90
42031;DHT22;27709;52.036;5.906;2023-05-10T06:56:49;14.60;99.90
42031;DHT22;27709;52.036;5.906;2023-05-10T06:59:14;14.60;99.90
42031;DHT22;27709;52.036;5.906;2023-05-10T07:01:41;14.50;99.90
42031;DHT22;27709;52.036;5.906;2023-05-10T07:04:07;14.50;99.90
42031;DHT22;27709;52.036;5.906;2023-05-10T07:06:33;14.50;99.90
42031;DHT22;27709;52.036;5.906;2023-05-10T07:08:58;14.50;99.90
42031;DHT22;27709;52.036;5.906;2023-05-10T07:11:24;14.60;99.90
42031;DHT22;27709;52.036;5.906;2023-05-10T07:13:49;14.60;99.90
42031;DHT22;27709;52.036;5.906;2023-05-10T07:16:15;14.70;99.90
42031;DHT22;27709;52.036;5.906;2023-05-10T07:18:40;14.80;99.90
42031;DHT22;27709;52.036;5.906;2023-05-10T07:21:06;14.90;99.90
42031;DHT22;27709;52.036;5.906;2023-05-10T07:23:31;15.00;99.90
42031;DHT22;27709;52.036;5.906;2023-05-10T07:25:57;15.00;99.90
42031;DHT22;27709;52.036;5.906;2023-05-10T07:28:22;15.10;99.90
42031;DHT22;27709;52.036;5.906;2023-05-10T07:30:48;15.10;99.90
42031;DHT22;27709;52.036;5.906;2023-05-10T07:33:14;15.10;99.90
42031;DHT22;27709;52.036;5.906;2023-05-10T07:35:40;15.10;99.90
42031;DHT22;27709;52.036;5.906;2023-05-10T07:38:07;15.10;99.90
42031;DHT22;27709;52.036;5.906;2023-05-10T07:40:32;15.10;99.90
42031;DHT22;27709;52.036;5.906;2023-05-10T07:42:58;15.20;99.90
42031;DHT22;27709;52.036;5.906;2023-05-10T07:45:23;15.20;99.90
42031;DHT22;27709;52.036;5.906;2023-05-10T07:47:49;15.20;99.90
42031;DHT22;27709;52.036;5.906;2023-05-10T07:50:15;15.30;99.90
42031;DHT22;27709;52.036;5.906;2023-05-10T07:52:40;15.30;99.90
42031;DHT22;27709;52.036;5.906;2023-05-10T07:55:06;15.30;99.90
42031;DHT22;27709;52.036;5.906;2023-05-10T07:57:33;15.30;99.90
42031;DHT22;27709;52.036;5.906;2023-05-10T07:59:58;15.30;99.90
42031;DHT22;27709;52.036;5.906;2023-05-10T08:02:24;15.40;99.90
42031;DHT22;27709;52.036;5.906;2023-05-10T08:04:49;15.50;99.90
42031;DHT22;27709;52.036;5.906;2023-05-10T08:07:15;15.60;99.90
42031;DHT22;27709;52.036;5.906;2023-05-10T08:09:40;15.80;99.90
42031;DHT22;27709;52.036;5.906;2023-05-10T08:12:06;15.80;99.90
42031;DHT22;27709;52.036;5.906;2023-05-10T08:14:31;15.90;99.90
42031;DHT22;27709;52.036;5.906;2023-05-10T08:16:57;15.90;99.90
42031;DHT22;27709;52.036;5.906;2023-05-10T08:19:22;15.90;99.90
42031;DHT22;27709;52.036;5.906;2023-05-10T08:21:48;15.80;99.90
42031;DHT22;27709;52.036;5.906;2023-05-10T08:24:13;15.80;99.90
42031;DHT22;27709;52.036;5.906;2023-05-10T08:26:39;15.70;99.90
42031;DHT22;27709;52.036;5.906;2023-05-10T08:29:04;15.70;99.90
42031;DHT22;27709;52.036;5.906;2023-05-10T08:31:30;15.60;99.90
42031;DHT22;27709;52.036;5.906;2023-05-10T08:33:55;15.70;99.90
42031;DHT22;27709;52.036;5.906;2023-05-10T08:36:21;15.70;99.90
42031;DHT22;27709;52.036;5.906;2023-05-10T08:38:52;15.60;99.90
42031;DHT22;27709;52.036;5.906;2023-05-10T08:41:21;15.60;99.90
42031;DHT22;27709;52.036;5.906;2023-05-10T08:43:47;15.50;99.90
42031;DHT22;27709;52.036;5.906;2023-05-10T08:46:16;15.50;99.90
42031;DHT22;27709;52.036;5.906;2023-05-10T08:48:44;15.40;99.90
42031;DHT22;27709;52.036;5.906;2023-05-10T08:51:09;15.40;99.90
42031;DHT22;27709;52.036;5.906;2023-05-10T08:53:38;15.50;99.90
42031;DHT22;27709;52.036;5.906;2023-05-10T08:56:03;15.50;99.90
42031;DHT22;27709;52.036;5.906;2023-05-10T08:58:29;15.60;99.90
42031;DHT22;27709;52.036;5.906;2023-05-10T09:00:54;15.60;99.90
42031;DHT22;27709;52.036;5.906;2023-05-10T09:03:21;15.60;99.90
42031;DHT22;27709;52.036;5.906;2023-05-10T09:05:46;15.60;99.90
42031;DHT22;27709;52.036;5.906;2023-05-10T09:08:13;15.50;99.90
42031;DHT22;27709;52.036;5.906;2023-05-10T09:10:39;15.50;99.90
42031;DHT22;27709;52.036;5.906;2023-05-10T09:13:05;15.40;99.90
42031;DHT22;27709;52.036;5.906;2023-05-10T09:15:31;15.40;99.90
42031;DHT22;27709;52.036;5.906;2023-05-10T09:17:56;15.30;99.90
42031;DHT22;27709;52.036;5.906;2023-05-10T09:20:24;15.40;99.90
42031;DHT22;27709;52.036;5.906;2023-05-10T09:22:49;15.50;99.90
42031;DHT22;27709;52.036;5.906;2023-05-10T09:25:15;15.60;99.90
42031;DHT22;27709;52.036;5.906;2023-05-10T09:27:43;15.60;99.90
42031;DHT22;27709;52.036;5.906;2023-05-10T09:30:09;15.80;99.90
42031;DHT22;27709;52.036;5.906;2023-05-10T09:32:42;16.00;99.90
42031;DHT22;27709;52.036;5.906;2023-05-10T09:35:08;16.20;99.90
42031;DHT22;27709;52.036;5.906;2023-05-10T09:37:34;16.20;99.90
42031;DHT22;27709;52.036;5.906;2023-05-10T09:39:59;16.30;99.90
42031;DHT22;27709;52.036;5.906;2023-05-10T09:42:25;16.40;99.90
42031;DHT22;27709;52.036;5.906;2023-05-10T09:44:50;16.40;99.90
42031;DHT22;27709;52.036;5.906;2023-05-10T09:47:19;16.40;99.90
42031;DHT22;27709;52.036;5.906;2023-05-10T09:49:49;16.40;99.90
42031;DHT22;27709;52.036;5.906;2023-05-10T09:52:14;16.40;99.90
42031;DHT22;27709;52.036;5.906;2023-05-10T09:54:42;16.40;99.90
42031;DHT22;27709;52.036;5.906;2023-05-10T09:57:18;16.30;99.90
42031;DHT22;27709;52.036;5.906;2023-05-10T09:59:45;16.30;99.90
42031;DHT22;27709;52.036;5.906;2023-05-10T10:02:11;16.30;99.90
42031;DHT22;27709;52.036;5.906;2023-05-10T10:04:40;16.20;99.90
42031;DHT22;27709;52.036;5.906;2023-05-10T10:07:06;16.20;99.90
42031;DHT22;27709;52.036;5.906;2023-05-10T10:09:32;16.10;99.90
42031;DHT22;27709;52.036;5.906;2023-05-10T10:11:57;16.00;99.90
42031;DHT22;27709;52.036;5.906;2023-05-10T10:14:23;16.00;99.90
42031;DHT22;27709;52.036;5.906;2023-05-10T10:16:52;16.00;99.90
42031;DHT22;27709;52.036;5.906;2023-05-10T10:19:18;16.00;99.90
42031;DHT22;27709;52.036;5.906;2023-05-10T10:21:43;16.00;99.90
42031;DHT22;27709;52.036;5.906;2023-05-10T10:24:09;16.20;99.90
42031;DHT22;27709;52.036;5.906;2023-05-10T10:26:35;16.20;99.90
42031;DHT22;27709;52.036;5.906;2023-05-10T10:31:41;16.60;99.90
42031;DHT22;27709;52.036;5.906;2023-05-10T10:34:10;16.70;99.90
42031;DHT22;27709;52.036;5.906;2023-05-10T10:36:44;16.80;99.90
42031;DHT22;27709;52.036;5.906;2023-05-10T10:39:10;16.80;99.90
42031;DHT22;27709;52.036;5.906;2023-05-10T10:41:38;16.80;99.90
42031;DHT22;27709;52.036;5.906;2023-05-10T10:49:48;17.10;99.90
42031;DHT22;27709;52.036;5.906;2023-05-10T10:54:41;17.50;99.90
42031;DHT22;27709;52.036;5.906;2023-05-10T10:57:17;17.90;99.90
42031;DHT22;27709;52.036;5.906;2023-05-10T10:59:43;18.10;99.90
42031;DHT22;27709;52.036;5.906;2023-05-10T11:04:55;18.30;99.90
42031;DHT22;27709;52.036;5.906;2023-05-10T11:07:21;18.30;99.90
42031;DHT22;27709;52.036;5.906;2023-05-10T11:09:47;18.20;99.90
42031;DHT22;27709;52.036;5.906;2023-05-10T11:12:12;18.20;99.90
42031;DHT22;27709;52.036;5.906;2023-05-10T11:14:38;18.30;99.90
42031;DHT22;27709;52.036;5.906;2023-05-10T11:17:23;18.40;99.90
42031;DHT22;27709;52.036;5.906;2023-05-10T11:20:08;18.50;99.90
42031;DHT22;27709;52.036;5.906;2023-05-10T11:22:50;18.60;99.90
42031;DHT22;27709;52.036;5.906;2023-05-10T11:25:17;18.70;99.90
42031;DHT22;27709;52.036;5.906;2023-05-10T11:27:42;18.60;99.90
42031;DHT22;27709;52.036;5.906;2023-05-10T11:30:09;18.60;99.90
42031;DHT22;27709;52.036;5.906;2023-05-10T11:32:36;18.50;99.90
42031;DHT22;27709;52.036;5.906;2023-05-10T11:35:09;18.50;99.90
42031;DHT22;27709;52.036;5.906;2023-05-10T11:37:34;18.30;99.90
42031;DHT22;27709;52.036;5.906;2023-05-10T11:40:00;18.20;99.90
42031;DHT22;27709;52.036;5.906;2023-05-10T11:42:27;18.20;99.90
42031;DHT22;27709;52.036;5.906;2023-05-10T11:44:53;18.10;99.90
42031;DHT22;27709;52.036;5.906;2023-05-10T11:47:18;17.90;99.90
42031;DHT22;27709;52.036;5.906;2023-05-10T11:49:44;17.90;99.90
42031;DHT22;27709;52.036;5.906;2023-05-10T11:52:10;17.90;99.90
42031;DHT22;27709;52.036;5.906;2023-05-10T11:54:45;17.90;99.90
42031;DHT22;27709;52.036;5.906;2023-05-10T11:57:11;17.90;99.90
42031;DHT22;27709;52.036;5.906;2023-05-10T11:59:37;18.00;99.90
42031;DHT22;27709;52.036;5.906;2023-05-10T12:02:02;18.00;99.90
42031;DHT22;27709;52.036;5.906;2023-05-10T12:04:28;18.00;99.90
42031;DHT22;27709;52.036;5.906;2023-05-10T12:06:54;18.00;99.90
42031;DHT22;27709;52.036;5.906;2023-05-10T12:09:20;18.00;99.90
42031;DHT22;27709;52.036;5.906;2023-05-10T12:11:45;17.90;99.90
42031;DHT22;27709;52.036;5.906;2023-05-10T12:14:11;18.00;99.90
42031;DHT22;27709;52.036;5.906;2023-05-10T12:16:36;18.00;99.90
42031;DHT22;27709;52.036;5.906;2023-05-10T12:19:02;18.10;99.90
42031;DHT22;27709;52.036;5.906;2023-05-10T12:21:27;18.30;99.90
42031;DHT22;27709;52.036;5.906;2023-05-10T12:23:54;18.40;99.90
42031;DHT22;27709;52.036;5.906;2023-05-10T12:26:23;18.60;99.90
42031;DHT22;27709;52.036;5.906;2023-05-10T12:28:50;18.80;99.90
42031;DHT22;27709;52.036;5.906;2023-05-10T12:31:15;18.90;99.90
42031;DHT22;27709;52.036;5.906;2023-05-10T12:33:41;19.10;99.90
42031;DHT22;27709;52.036;5.906;2023-05-10T12:36:11;19.20;99.90
42031;DHT22;27709;52.036;5.906;2023-05-10T12:38:37;19.30;99.90
42031;DHT22;27709;52.036;5.906;2023-05-10T12:41:07;19.40;99.90
42031;DHT22;27709;52.036;5.906;2023-05-10T12:43:33;19.50;99.90
42031;DHT22;27709;52.036;5.906;2023-05-10T12:46:03;19.50;99.90
42031;DHT22;27709;52.036;5.906;2023-05-10T12:48:29;19.60;99.90
42031;DHT22;27709;52.036;5.906;2023-05-10T12:50:56;19.60;99.90
42031;DHT22;27709;52.036;5.906;2023-05-10T12:53:22;19.60;99.90
42031;DHT22;27709;52.036;5.906;2023-05-10T12:55:47;19.60;99.90
42031;DHT22;27709;52.036;5.906;2023-05-10T12:58:12;19.50;99.90
42031;DHT22;27709;52.036;5.906;2023-05-10T13:00:38;19.50;99.90
42031;DHT22;27709;52.036;5.906;2023-05-10T13:03:04;19.50;99.90
42031;DHT22;27709;52.036;5.906;2023-05-10T13:05:31;19.60;99.90
42031;DHT22;27709;52.036;5.906;2023-05-10T13:07:57;19.60;99.90
42031;DHT22;27709;52.036;5.906;2023-05-10T13:10:22;19.70;99.90
42031;DHT22;27709;52.036;5.906;2023-05-10T13:12:49;20.00;99.90
42031;DHT22;27709;52.036;5.906;2023-05-10T13:15:14;20.20;99.90
42031;DHT22;27709;52.036;5.906;2023-05-10T13:17:40;20.40;99.90
42031;DHT22;27709;52.036;5.906;2023-05-10T13:20:06;20.40;99.90
42031;DHT22;27709;52.036;5.906;2023-05-10T13:22:31;20.50;99.90
42031;DHT22;27709;52.036;5.906;2023-05-10T13:24:57;20.70;99.90
42031;DHT22;27709;52.036;5.906;2023-05-10T13:27:22;20.60;99.90
42031;DHT22;27709;52.036;5.906;2023-05-10T13:29:48;20.60;99.90
42031;DHT22;27709;52.036;5.906;2023-05-10T13:32:15;20.50;99.90
42031;DHT22;27709;52.036;5.906;2023-05-10T13:34:40;20.40;99.90
42031;DHT22;27709;52.036;5.906;2023-05-10T13:37:07;20.30;99.90
42031;DHT22;27709;52.036;5.906;2023-05-10T13:39:32;20.30;99.90
42031;DHT22;27709;52.036;5.906;2023-05-10T13:41:59;20.20;99.90
42031;DHT22;27709;52.036;5.906;2023-05-10T13:44:25;20.20;99.90
42031;DHT22;27709;52.036;5.906;2023-05-10T13:46:51;20.20;99.90
42031;DHT22;27709;52.036;5.906;2023-05-10T13:49:16;20.20;99.90
42031;DHT22;27709;52.036;5.906;2023-05-10T13:51:42;20.10;99.90
42031;DHT22;27709;52.036;5.906;2023-05-10T13:54:08;20.00;99.90
42031;DHT22;27709;52.036;5.906;2023-05-10T13:56:33;19.90;99.90
42031;DHT22;27709;52.036;5.906;2023-05-10T13:58:59;19.80;99.90
42031;DHT22;27709;52.036;5.906;2023-05-10T14:01:24;19.60;99.90
42031;DHT22;27709;52.036;5.906;2023-05-10T14:03:50;19.40;99.90
42031;DHT22;27709;52.036;5.906;2023-05-10T14:06:15;19.20;99.90
42031;DHT22;27709;52.036;5.906;2023-05-10T14:08:41;18.90;99.90
42031;DHT22;27709;52.036;5.906;2023-05-10T14:11:06;18.70;99.90
42031;DHT22;27709;52.036;5.906;2023-05-10T14:13:31;18.40;99.90
42031;DHT22;27709;52.036;5.906;2023-05-10T14:15:57;18.30;99.90
42031;DHT22;27709;52.036;5.906;2023-05-10T14:18:23;18.10;99.90
42031;DHT22;27709;52.036;5.906;2023-05-10T14:20:49;17.90;99.90
42031;DHT22;27709;52.036;5.906;2023-05-10T14:23:14;17.80;99.90
42031;DHT22;27709;52.036;5.906;2023-05-10T14:25:40;17.80;99.90
42031;DHT22;27709;52.036;5.906;2023-05-10T14:28:05;17.70;99.90
42031;DHT22;27709;52.036;5.906;2023-05-10T14:30:31;17.70;99.90
42031;DHT22;27709;52.036;5.906;2023-05-10T14:32:57;17.60;99.90
42031;DHT22;27709;52.036;5.906;2023-05-10T14:35:23;17.50;99.90
42031;DHT22;27709;52.036;5.906;2023-05-10T14:37:49;17.50;99.90
42031;DHT22;27709;52.036;5.906;2023-05-10T14:40:14;17.40;99.90
42031;DHT22;27709;52.036;5.906;2023-05-10T14:42:41;17.40;99.90
42031;DHT22;27709;52.036;5.906;2023-05-10T14:45:07;17.30;99.90
42031;DHT22;27709;52.036;5.906;2023-05-10T14:47:33;17.30;99.90
42031;DHT22;27709;52.036;5.906;2023-05-10T14:49:59;17.30;99.90
42031;DHT22;27709;52.036;5.906;2023-05-10T14:52:24;17.20;99.90
42031;DHT22;27709;52.036;5.906;2023-05-10T14:54:50;17.20;99.90
42031;DHT22;27709;52.036;5.906;2023-05-10T14:57:15;17.20;99.90
42031;DHT22;27709;52.036;5.906;2023-05-10T14:59:41;17.20;99.90
42031;DHT22;27709;52.036;5.906;2023-05-10T15:02:06;17.20;99.90
42031;DHT22;27709;52.036;5.906;2023-05-10T15:04:33;17.20;99.90
42031;DHT22;27709;52.036;5.906;2023-05-10T15:06:59;17.20;99.90
42031;DHT22;27709;52.036;5.906;2023-05-10T15:09:24;17.30;99.90
42031;DHT22;27709;52.036;5.906;2023-05-10T15:11:50;17.30;99.90
42031;DHT22;27709;52.036;5.906;2023-05-10T15:14:16;17.30;99.90
42031;DHT22;27709;52.036;5.906;2023-05-10T15:16:41;17.30;99.90
42031;DHT22;27709;52.036;5.906;2023-05-10T15:19:06;17.30;99.90
42031;DHT22;27709;52.036;5.906;2023-05-10T15:21:32;17.30;99.90
42031;DHT22;27709;52.036;5.906;2023-05-10T15:24:07;17.30;99.90
42031;DHT22;27709;52.036;5.906;2023-05-10T15:26:32;17.30;99.90
42031;DHT22;27709;52.036;5.906;2023-05-10T15:28:58;17.30;99.90
42031;DHT22;27709;52.036;5.906;2023-05-10T15:31:23;17.30;99.90
42031;DHT22;27709;52.036;5.906;2023-05-10T15:33:49;17.40;99.90
42031;DHT22;27709;52.036;5.906;2023-05-10T15:36:14;17.40;99.90
42031;DHT22;27709;52.036;5.906;2023-05-10T15:38:40;17.50;99.90
42031;DHT22;27709;52.036;5.906;2023-05-10T15:41:06;17.50;99.90
42031;DHT22;27709;52.036;5.906;2023-05-10T15:43:31;17.60;99.90
42031;DHT22;27709;52.036;5.906;2023-05-10T15:45:56;17.60;99.90